createdAt,value
2018-04-14T00:00:52.739Z,15.06
2018-04-14T00:03:20.329Z,15.06
2018-04-14T00:05:47.958Z,15.08
2018-04-14T00:08:16.104Z,15.05
2018-04-14T00:10:43.760Z,15.03
2018-04-14T00:13:11.496Z,15.00
2018-04-14T00:15:39.153Z,14.98
2018-04-14T00:18:06.800Z,14.93
2018-04-14T00:20:34.873Z,14.95
2018-04-14T00:23:02.521Z,14.95
2018-04-14T00:25:30.107Z,14.92
2018-04-14T00:27:57.772Z,14.93
2018-04-14T00:30:25.358Z,14.93
2018-04-14T00:32:53.000Z,14.93
2018-04-14T00:35:21.969Z,14.91
2018-04-14T00:37:49.605Z,14.82
2018-04-14T00:40:17.180Z,14.76
2018-04-14T00:42:44.940Z,14.69
2018-04-14T00:45:12.532Z,14.67
2018-04-14T00:47:40.214Z,14.66
2018-04-14T00:50:07.961Z,14.67
2018-04-14T00:52:35.611Z,14.66
2018-04-14T00:55:03.269Z,14.68
2018-04-14T00:57:30.953Z,14.67
2018-04-14T00:59:58.547Z,14.64
2018-04-14T01:02:26.208Z,14.60
2018-04-14T01:04:53.921Z,14.59
2018-04-14T01:07:21.547Z,14.62
2018-04-14T01:09:49.141Z,14.64
2018-04-14T01:12:17.556Z,14.69
2018-04-14T01:14:45.136Z,14.70
2018-04-14T01:17:12.788Z,14.75
2018-04-14T01:19:40.559Z,14.74
2018-04-14T01:22:08.227Z,14.64
2018-04-14T01:24:35.899Z,14.47
2018-04-14T01:27:03.553Z,14.38
2018-04-14T01:29:31.151Z,14.24
2018-04-14T01:31:58.744Z,14.08
2018-04-14T01:34:26.476Z,14.01
2018-04-14T01:36:54.241Z,13.83
2018-04-14T01:39:21.829Z,13.68
2018-04-14T01:41:49.580Z,13.58
2018-04-14T01:44:17.787Z,13.53
2018-04-14T01:46:45.471Z,13.55
2018-04-14T01:49:13.202Z,13.57
2018-04-14T01:51:40.781Z,13.56
2018-04-14T01:54:08.357Z,13.51
2018-04-14T01:56:35.989Z,13.51
2018-04-14T01:59:03.607Z,13.51
2018-04-14T02:01:31.245Z,13.50
2018-04-14T02:03:59.012Z,13.49
2018-04-14T02:06:26.600Z,13.45
2018-04-14T02:08:54.203Z,13.46
2018-04-14T02:11:21.868Z,13.41
2018-04-14T02:13:49.532Z,13.40
2018-04-14T02:16:17.124Z,13.38
2018-04-14T02:18:44.842Z,13.29
2018-04-14T02:21:12.419Z,13.19
2018-04-14T02:23:40.063Z,13.13
2018-04-14T02:26:07.741Z,13.06
2018-04-14T02:28:35.323Z,13.06
2018-04-14T02:31:02.899Z,13.01
2018-04-14T02:33:30.520Z,12.88
2018-04-14T02:35:58.137Z,12.85
2018-04-14T02:38:26.255Z,12.85
2018-04-14T02:40:54.041Z,12.84
2018-04-14T02:43:21.652Z,12.87
2018-04-14T02:45:49.235Z,12.86
2018-04-14T02:48:16.871Z,12.84
2018-04-14T02:50:44.460Z,12.83
2018-04-14T02:53:12.051Z,12.79
2018-04-14T02:55:39.740Z,12.72
2018-04-14T02:58:07.388Z,12.71
2018-04-14T03:00:34.979Z,12.73
2018-04-14T03:03:02.767Z,12.71
2018-04-14T03:05:30.383Z,12.70
2018-04-14T03:07:57.957Z,12.68
2018-04-14T03:10:25.751Z,12.64
2018-04-14T03:12:53.341Z,12.60
2018-04-14T03:15:20.923Z,12.58
2018-04-14T03:17:48.616Z,12.59
2018-04-14T03:20:16.211Z,12.61
2018-04-14T03:22:43.803Z,12.59
2018-04-14T03:25:11.590Z,12.58
2018-04-14T03:27:39.237Z,12.57
2018-04-14T03:30:06.864Z,12.53
2018-04-14T03:32:34.565Z,12.50
2018-04-14T03:35:02.206Z,12.49
2018-04-14T03:37:29.794Z,12.46
2018-04-14T03:39:57.715Z,12.44
2018-04-14T03:42:25.300Z,12.41
2018-04-14T03:44:52.879Z,12.40
2018-04-14T03:47:20.663Z,12.40
2018-04-14T03:49:48.256Z,12.41
2018-04-14T03:52:15.902Z,12.40
2018-04-14T03:54:43.547Z,12.42
2018-04-14T03:57:11.132Z,12.43
2018-04-14T03:59:38.716Z,12.43
2018-04-14T04:02:06.404Z,12.47
2018-04-14T04:04:33.995Z,12.49
2018-04-14T04:07:01.600Z,12.52
2018-04-14T04:09:29.229Z,12.53
2018-04-14T04:11:56.817Z,12.53
2018-04-14T04:14:24.405Z,12.55
2018-04-14T04:16:52.110Z,12.55
2018-04-14T04:19:31.524Z,12.57
2018-04-14T04:22:10.917Z,12.61
2018-04-14T04:24:50.348Z,12.60
2018-04-14T04:27:18.120Z,12.65
2018-04-14T04:29:45.768Z,12.70
2018-04-14T04:32:13.347Z,12.80
2018-04-14T04:34:41.098Z,12.90
2018-04-14T04:37:08.713Z,13.04
2018-04-14T04:39:36.372Z,13.15
2018-04-14T04:42:04.239Z,13.27
2018-04-14T04:44:31.887Z,13.34
2018-04-14T04:46:59.528Z,13.45
2018-04-14T04:49:27.171Z,13.57
2018-04-14T04:51:54.810Z,13.71
2018-04-14T04:54:22.452Z,13.85
2018-04-14T04:56:50.248Z,14.05
2018-04-14T04:59:17.957Z,14.21
2018-04-14T05:01:46.213Z,14.41
2018-04-14T05:04:13.839Z,14.59
2018-04-14T05:06:41.435Z,14.77
2018-04-14T05:09:09.021Z,14.89
2018-04-14T05:11:36.711Z,15.19
2018-04-14T05:14:04.381Z,15.37
2018-04-14T05:16:31.998Z,15.47
2018-04-14T05:18:59.723Z,15.45
2018-04-14T05:21:27.349Z,15.31
2018-04-14T05:23:54.945Z,15.29
2018-04-14T05:26:22.580Z,15.46
2018-04-14T05:28:50.188Z,16.16
2018-04-14T05:31:17.772Z,17.11
2018-04-14T05:33:45.561Z,17.99
2018-04-14T05:36:13.148Z,18.60
2018-04-14T05:38:40.734Z,18.95
2018-04-14T05:41:08.448Z,19.48
2018-04-14T05:43:36.218Z,19.92
2018-04-14T05:46:03.897Z,19.82
2018-04-14T05:48:31.530Z,19.73
2018-04-14T05:50:59.682Z,20.15
2018-04-14T05:53:27.302Z,20.69
2018-04-14T05:55:54.996Z,21.00
2018-04-14T05:58:22.701Z,21.33
2018-04-14T06:00:50.380Z,21.58
2018-04-14T06:03:18.023Z,21.72
2018-04-14T06:05:45.601Z,21.80
2018-04-14T06:08:13.187Z,21.75
2018-04-14T06:10:40.819Z,22.07
2018-04-14T06:13:08.460Z,22.49
2018-04-14T06:15:36.043Z,22.20
2018-04-14T06:18:03.732Z,22.49
2018-04-14T06:20:31.327Z,22.15
2018-04-14T06:22:58.908Z,22.56
2018-04-14T06:25:26.585Z,22.72
2018-04-14T06:27:54.178Z,22.90
2018-04-14T06:30:21.800Z,23.05
2018-04-14T06:32:49.519Z,23.18
2018-04-14T06:35:17.091Z,22.94
2018-04-14T06:37:44.682Z,23.33
2018-04-14T06:40:12.312Z,22.85
2018-04-14T06:42:39.892Z,22.57
2018-04-14T06:45:07.719Z,22.45
2018-04-14T06:47:35.518Z,22.17
2018-04-14T06:50:03.731Z,22.26
2018-04-14T06:52:31.373Z,22.36
2018-04-14T06:54:59.024Z,22.37
2018-04-14T06:57:26.604Z,22.21
2018-04-14T06:59:54.240Z,22.37
2018-04-14T07:02:21.892Z,22.35
2018-04-14T07:04:50.392Z,22.39
2018-04-14T07:07:17.949Z,21.95
2018-04-14T07:09:45.679Z,22.19
2018-04-14T07:12:13.267Z,22.38
2018-04-14T07:14:40.860Z,22.50
2018-04-14T07:17:08.480Z,22.21
2018-04-14T07:19:36.881Z,22.13
2018-04-14T07:22:04.473Z,22.17
2018-04-14T07:24:32.280Z,21.94
2018-04-14T07:26:59.878Z,22.40
2018-04-14T07:29:27.526Z,22.48
2018-04-14T07:31:55.197Z,22.56
2018-04-14T07:34:22.875Z,22.73
2018-04-14T07:36:50.525Z,22.92
2018-04-14T07:39:18.292Z,22.92
2018-04-14T07:41:45.876Z,22.51
2018-04-14T07:44:13.488Z,22.48
2018-04-14T07:46:42.088Z,21.97
2018-04-14T07:49:09.674Z,22.43
2018-04-14T07:51:37.324Z,22.53
2018-04-14T07:54:05.030Z,22.60
2018-04-14T07:56:32.621Z,22.66
2018-04-14T07:59:00.191Z,23.06
2018-04-14T08:01:28.095Z,22.96
2018-04-14T08:03:55.675Z,23.11
2018-04-14T08:06:23.269Z,23.38
2018-04-14T08:08:50.962Z,23.17
2018-04-14T08:11:18.552Z,23.12
2018-04-14T08:13:46.128Z,23.08
2018-04-14T08:16:13.851Z,23.07
2018-04-14T08:18:41.436Z,23.29
2018-04-14T08:21:09.011Z,23.42
2018-04-14T08:23:37.460Z,23.38
2018-04-14T08:26:05.825Z,23.37
2018-04-14T08:28:33.920Z,23.20
2018-04-14T08:31:02.192Z,22.92
2018-04-14T08:33:29.813Z,22.79
2018-04-14T08:35:58.104Z,22.84
2018-04-14T08:38:25.819Z,22.89
2018-04-14T08:40:53.678Z,23.30
2018-04-14T08:43:21.324Z,23.21
2018-04-14T08:45:48.980Z,23.24
2018-04-14T08:48:17.287Z,23.47
2018-04-14T08:50:44.947Z,23.68
2018-04-14T08:53:12.584Z,23.85
2018-04-14T08:55:40.168Z,24.04
2018-04-14T08:58:07.744Z,24.15
2018-04-14T09:00:35.379Z,24.38
2018-04-14T09:03:02.974Z,24.26
2018-04-14T09:05:30.547Z,24.25
2018-04-14T09:07:58.191Z,24.22
2018-04-14T09:10:25.790Z,24.60
2018-04-14T09:12:53.374Z,24.49
2018-04-14T09:15:21.007Z,25.03
2018-04-14T09:17:48.662Z,24.93
2018-04-14T09:20:16.308Z,24.96
2018-04-14T09:22:44.016Z,24.99
2018-04-14T09:25:11.676Z,24.89
2018-04-14T09:27:39.261Z,24.69
2018-04-14T09:30:07.548Z,24.66
2018-04-14T09:32:35.128Z,24.75
2018-04-14T09:35:02.734Z,24.60
2018-04-14T09:37:30.432Z,24.73
2018-04-14T09:39:58.032Z,24.56
2018-04-14T09:42:25.705Z,24.61
2018-04-14T09:44:53.345Z,24.91
2018-04-14T09:47:20.935Z,24.67
2018-04-14T09:49:48.688Z,24.79
2018-04-14T09:52:16.503Z,25.02
2018-04-14T09:54:44.146Z,25.30
2018-04-14T09:57:11.779Z,25.55
2018-04-14T09:59:40.310Z,25.32
2018-04-14T10:02:10.934Z,25.17
2018-04-14T10:04:38.523Z,25.06
2018-04-14T10:07:06.210Z,25.50
2018-04-14T10:09:33.791Z,25.91
2018-04-14T10:12:01.380Z,25.90
2018-04-14T10:14:29.132Z,25.96
2018-04-14T10:16:56.804Z,26.37
2018-04-14T10:19:24.392Z,26.77
2018-04-14T10:21:52.035Z,26.78
2018-04-14T10:24:19.623Z,26.94
2018-04-14T10:26:47.278Z,27.00
2018-04-14T10:29:14.984Z,27.33
2018-04-14T10:31:42.632Z,27.43
2018-04-14T10:34:10.221Z,27.70
2018-04-14T10:36:37.965Z,27.58
2018-04-14T10:39:06.328Z,27.62
2018-04-14T10:41:33.921Z,27.58
2018-04-14T10:44:01.560Z,27.37
2018-04-14T10:46:29.228Z,27.12
2018-04-14T10:48:56.836Z,27.04
2018-04-14T10:51:24.700Z,26.85
2018-04-14T10:53:52.295Z,26.99
2018-04-14T10:56:19.974Z,27.09
2018-04-14T10:58:47.615Z,27.00
2018-04-14T11:01:15.226Z,27.10
2018-04-14T11:03:42.842Z,27.28
2018-04-14T11:06:10.578Z,27.47
2018-04-14T11:08:38.177Z,27.68
2018-04-14T11:17:03.333Z,27.48
2018-04-14T11:19:30.924Z,27.58
2018-04-14T11:21:58.525Z,27.55
2018-04-14T11:24:26.152Z,27.27
2018-04-14T11:26:53.800Z,27.42
2018-04-14T11:29:21.489Z,27.30
2018-04-14T11:31:49.119Z,27.35
2018-04-14T11:34:16.777Z,27.39
2018-04-14T11:36:44.369Z,27.37
2018-04-14T11:39:12.088Z,27.22
2018-04-14T11:41:39.664Z,27.41
2018-04-14T11:44:07.249Z,27.19
2018-04-14T11:46:34.952Z,26.94
2018-04-14T11:49:02.547Z,26.54
2018-04-14T11:51:30.271Z,26.62
2018-04-14T11:53:57.975Z,26.48
2018-04-14T11:56:25.568Z,26.96
2018-04-14T11:58:53.155Z,27.34
2018-04-14T12:01:20.800Z,27.43
2018-04-14T12:03:48.389Z,27.17
2018-04-14T12:06:16.052Z,26.92
2018-04-14T12:08:43.784Z,27.10
2018-04-14T12:11:11.378Z,27.12
2018-04-14T12:13:39.033Z,27.43
2018-04-14T12:16:06.825Z,27.49
2018-04-14T12:18:34.404Z,27.75
2018-04-14T12:21:02.065Z,27.90
2018-04-14T12:23:29.816Z,28.15
2018-04-14T12:25:57.457Z,28.36
2018-04-14T12:28:25.057Z,29.15
2018-04-14T12:30:52.764Z,29.12
2018-04-14T12:33:20.364Z,29.26
2018-04-14T12:35:48.013Z,29.01
2018-04-14T12:38:15.717Z,28.93
2018-04-14T12:40:43.300Z,28.87
2018-04-14T12:43:10.897Z,28.68
2018-04-14T12:45:38.640Z,28.74
2018-04-14T12:48:06.890Z,28.88
2018-04-14T12:50:34.540Z,28.70
2018-04-14T12:53:02.413Z,28.63
2018-04-14T12:55:30.316Z,28.62
2018-04-14T12:57:57.944Z,28.22
2018-04-14T13:00:25.598Z,27.89
2018-04-14T13:02:53.266Z,27.57
2018-04-14T13:05:20.919Z,27.04
2018-04-14T13:07:48.611Z,26.76
2018-04-14T13:10:16.205Z,26.50
2018-04-14T13:12:43.793Z,26.46
2018-04-14T13:15:11.428Z,26.49
2018-04-14T13:17:39.012Z,26.73
2018-04-14T13:20:06.611Z,26.42
2018-04-14T13:22:34.402Z,26.25
2018-04-14T13:25:02.019Z,26.03
2018-04-14T13:27:29.673Z,26.13
2018-04-14T13:29:57.416Z,26.03
2018-04-14T13:32:25.031Z,26.06
2018-04-14T13:34:52.614Z,26.11
2018-04-14T13:37:20.332Z,26.15
2018-04-14T13:39:47.976Z,26.01
2018-04-14T13:42:15.640Z,25.91
2018-04-14T13:44:43.305Z,25.76
2018-04-14T13:47:11.842Z,25.47
2018-04-14T13:49:39.498Z,25.42
2018-04-14T13:52:07.301Z,25.33
2018-04-14T13:54:35.441Z,25.35
2018-04-14T13:57:03.403Z,25.45
2018-04-14T13:59:31.148Z,25.44
2018-04-14T14:01:58.794Z,25.47
2018-04-14T14:04:26.501Z,25.34
2018-04-14T14:06:54.219Z,25.40
2018-04-14T14:09:21.815Z,25.48
2018-04-14T14:11:49.400Z,25.27
2018-04-14T14:14:17.119Z,25.19
2018-04-14T14:16:44.707Z,25.14
2018-04-14T14:19:12.326Z,25.19
2018-04-14T14:21:39.973Z,25.11
2018-04-14T14:24:07.558Z,25.10
2018-04-14T14:26:35.168Z,25.27
2018-04-14T14:29:02.978Z,25.41
2018-04-14T14:31:30.633Z,25.50
2018-04-14T14:33:58.400Z,25.49
2018-04-14T14:36:26.111Z,25.39
2018-04-14T14:38:53.753Z,25.26
2018-04-14T14:41:22.900Z,25.11
2018-04-14T14:43:50.632Z,25.00
2018-04-14T14:46:18.288Z,24.96
2018-04-14T14:48:45.946Z,24.86
2018-04-14T14:51:13.589Z,24.72
2018-04-14T14:53:41.165Z,24.71
2018-04-14T14:56:08.837Z,24.70
2018-04-14T14:58:36.472Z,24.71
2018-04-14T15:01:04.145Z,24.75
2018-04-14T15:03:31.750Z,24.76
2018-04-14T15:05:59.441Z,24.78
2018-04-14T15:08:27.101Z,24.75
2018-04-14T15:10:54.684Z,24.66
2018-04-14T15:13:22.382Z,24.61
2018-04-14T15:15:50.024Z,24.56
2018-04-14T15:18:17.669Z,24.50
2018-04-14T15:20:45.291Z,24.48
2018-04-14T15:23:12.865Z,24.44
2018-04-14T15:25:40.453Z,24.41
2018-04-14T15:28:08.087Z,24.19
2018-04-14T15:30:35.729Z,24.00
2018-04-14T15:33:03.322Z,23.88
2018-04-14T15:35:31.440Z,23.86
2018-04-14T15:37:59.763Z,23.80
2018-04-14T15:40:27.411Z,23.79
2018-04-14T15:42:55.105Z,23.58
2018-04-14T15:45:22.827Z,23.41
2018-04-14T15:47:50.474Z,23.44
2018-04-14T15:50:18.265Z,23.41
2018-04-14T15:52:45.853Z,23.33
2018-04-14T15:55:13.512Z,23.23
2018-04-14T15:57:41.553Z,23.22
2018-04-14T16:00:09.156Z,23.27
2018-04-14T16:02:36.740Z,23.27
2018-04-14T16:05:04.394Z,23.24
2018-04-14T16:07:32.064Z,23.16
2018-04-14T16:09:59.640Z,23.02
2018-04-14T16:12:27.899Z,22.99
2018-04-14T16:14:55.478Z,22.99
2018-04-14T16:17:23.088Z,22.94
2018-04-14T16:19:50.808Z,22.83
2018-04-14T16:22:18.477Z,22.74
2018-04-14T16:24:46.108Z,22.62
2018-04-14T16:27:13.731Z,22.55
2018-04-14T16:29:41.317Z,22.47
2018-04-14T16:32:09.621Z,22.40
2018-04-14T16:34:37.347Z,22.26
2018-04-14T16:37:05.004Z,22.15
2018-04-14T16:39:32.588Z,22.02
2018-04-14T16:42:00.296Z,21.99
2018-04-14T16:44:27.885Z,21.94
2018-04-14T16:46:55.613Z,21.84
2018-04-14T16:49:23.267Z,21.79
2018-04-14T16:51:50.905Z,21.66
2018-04-14T16:54:18.654Z,21.64
2018-04-14T16:56:46.414Z,21.62
2018-04-14T16:59:14.789Z,21.56
2018-04-14T17:01:42.386Z,21.49
2018-04-14T17:04:10.085Z,21.43
2018-04-14T17:06:37.791Z,21.36
2018-04-14T17:09:05.564Z,21.28
2018-04-14T17:11:33.273Z,21.16
2018-04-14T17:14:00.866Z,21.12
2018-04-14T17:16:28.450Z,20.97
2018-04-14T17:18:56.111Z,20.94
2018-04-14T17:21:24.481Z,20.92
2018-04-14T17:23:52.129Z,20.82
2018-04-14T17:26:19.779Z,20.63
2018-04-14T17:28:47.359Z,20.51
2018-04-14T17:31:15.016Z,20.37
2018-04-14T17:33:42.650Z,20.26
2018-04-14T17:36:10.232Z,20.12
2018-04-14T17:38:37.808Z,20.13
2018-04-14T17:41:05.459Z,20.09
2018-04-14T17:43:33.118Z,20.00
2018-04-14T17:46:00.723Z,19.90
2018-04-14T17:48:28.447Z,19.79
2018-04-14T17:50:56.105Z,19.71
2018-04-14T17:53:23.716Z,19.61
2018-04-14T17:55:51.489Z,19.51
2018-04-14T17:58:19.061Z,19.47
2018-04-14T18:00:46.892Z,19.40
2018-04-14T18:03:14.594Z,19.31
2018-04-14T18:05:42.199Z,19.22
2018-04-14T18:08:09.803Z,19.11
2018-04-14T18:10:37.509Z,19.02
2018-04-14T18:13:05.920Z,18.92
2018-04-14T18:15:33.485Z,18.83
2018-04-14T18:18:01.210Z,18.80
2018-04-14T18:20:28.801Z,18.71
2018-04-14T18:22:56.432Z,18.67
2018-04-14T18:25:24.241Z,18.63
2018-04-14T18:27:51.925Z,18.56
2018-04-14T18:30:19.877Z,18.48
2018-04-14T18:32:47.624Z,18.50
2018-04-14T18:35:15.271Z,18.45
2018-04-14T18:37:42.849Z,18.39
2018-04-14T18:40:10.577Z,18.35
2018-04-14T18:42:38.163Z,18.32
2018-04-14T18:45:05.843Z,18.28
2018-04-14T18:47:33.512Z,18.24
2018-04-14T18:50:01.101Z,18.20
2018-04-14T18:52:28.710Z,18.18
2018-04-14T18:54:56.360Z,18.10
2018-04-14T18:57:23.944Z,17.94
2018-04-14T18:59:51.534Z,17.72
2018-04-14T19:02:19.448Z,17.63
2018-04-14T19:04:47.098Z,17.55
2018-04-14T19:07:14.714Z,17.50
2018-04-14T19:09:42.355Z,17.28
2018-04-14T19:12:10.004Z,17.21
2018-04-14T19:14:37.595Z,17.14
2018-04-14T19:17:05.265Z,17.13
2018-04-14T19:19:32.873Z,17.03
2018-04-14T19:22:00.481Z,16.82
2018-04-14T19:24:28.224Z,16.77
2018-04-14T19:26:55.824Z,16.67
2018-04-14T19:29:23.408Z,16.54
2018-04-14T19:31:51.193Z,16.43
2018-04-14T19:34:19.581Z,16.23
2018-04-14T19:36:47.241Z,15.95
2018-04-14T19:39:15.030Z,15.71
2018-04-14T19:41:42.620Z,15.27
2018-04-14T19:44:10.219Z,14.80
2018-04-14T19:46:37.856Z,14.63
2018-04-14T19:49:05.750Z,14.54
2018-04-14T19:51:33.403Z,14.50
2018-04-14T19:54:01.120Z,14.35
2018-04-14T19:56:28.704Z,14.30
2018-04-14T19:58:56.299Z,14.29
2018-04-14T20:01:23.996Z,14.05
2018-04-14T20:03:51.737Z,13.94
2018-04-14T20:06:19.330Z,13.96
2018-04-14T20:08:47.057Z,13.78
2018-04-14T20:11:14.639Z,13.57
2018-04-14T20:13:42.296Z,13.31
2018-04-14T20:16:09.933Z,13.21
2018-04-14T20:18:37.531Z,13.13
2018-04-14T20:21:05.144Z,13.12
2018-04-14T20:23:32.921Z,13.05
2018-04-14T20:26:00.513Z,12.97
2018-04-14T20:28:28.217Z,12.95
2018-04-14T20:30:55.986Z,12.84
2018-04-14T20:33:24.360Z,12.86
2018-04-14T20:35:52.014Z,12.85
2018-04-14T20:38:19.727Z,12.92
2018-04-14T20:40:47.344Z,13.00
2018-04-14T20:43:14.998Z,13.07
2018-04-14T20:45:53.754Z,13.05
2018-04-14T20:48:21.413Z,13.09
2018-04-14T20:50:49.004Z,13.12
2018-04-14T20:53:16.648Z,13.14
2018-04-14T20:55:44.265Z,13.20
2018-04-14T20:58:11.911Z,13.24
2018-04-14T21:00:39.826Z,13.27
2018-04-14T21:03:07.421Z,13.25
2018-04-14T21:05:36.387Z,13.19
2018-04-14T21:08:04.058Z,13.22
2018-04-14T21:10:31.664Z,13.11
2018-04-14T21:12:59.332Z,13.14
2018-04-14T21:15:27.081Z,13.17
2018-04-14T21:17:57.759Z,13.23
2018-04-14T21:20:25.339Z,13.26
2018-04-14T21:22:53.872Z,13.36
2018-04-14T21:25:21.461Z,13.43
2018-04-14T21:27:49.312Z,13.45
2018-04-14T21:30:16.980Z,13.48
2018-04-14T21:32:44.568Z,13.52
2018-04-14T21:35:12.217Z,13.54
2018-04-14T21:37:39.947Z,13.53
2018-04-14T21:40:07.554Z,13.49
2018-04-14T21:42:37.299Z,13.42
2018-04-14T21:45:05.029Z,13.35
2018-04-14T21:47:32.659Z,13.18
2018-04-14T21:50:00.243Z,13.16
2018-04-14T21:52:28.033Z,13.09
2018-04-14T21:54:55.627Z,13.06
2018-04-14T21:57:23.234Z,13.06
2018-04-14T21:59:50.887Z,13.05
2018-04-14T22:02:18.548Z,13.01
2018-04-14T22:04:46.134Z,12.99
2018-04-14T22:07:13.931Z,12.98
2018-04-14T22:09:41.619Z,12.79
2018-04-14T22:12:09.308Z,12.35
2018-04-14T22:14:37.068Z,12.14
2018-04-14T22:17:04.682Z,12.17
2018-04-14T22:19:32.344Z,12.23
2018-04-14T22:22:00.173Z,12.18
2018-04-14T22:24:27.780Z,12.26
2018-04-14T22:26:55.423Z,12.32
2018-04-14T22:29:23.072Z,12.28
2018-04-14T22:31:50.671Z,12.27
2018-04-14T22:34:18.256Z,12.24
2018-04-14T22:36:45.964Z,12.14
2018-04-14T22:39:13.560Z,12.20
2018-04-14T22:41:41.217Z,12.16
2018-04-14T22:44:08.938Z,12.21
2018-04-14T22:46:36.600Z,12.22
2018-04-14T22:49:04.187Z,12.30
2018-04-14T22:51:31.833Z,12.31
2018-04-14T22:53:59.513Z,12.39
2018-04-14T22:56:27.096Z,12.49
2018-04-14T22:58:54.897Z,12.55
2018-04-14T23:01:22.479Z,12.40
2018-04-14T23:03:50.067Z,12.28
2018-04-14T23:06:17.801Z,12.33
2018-04-14T23:08:46.492Z,12.22
2018-04-14T23:11:14.093Z,12.20
2018-04-14T23:13:41.881Z,12.20
2018-04-14T23:16:09.597Z,12.22
2018-04-14T23:18:37.289Z,12.27
2018-04-14T23:21:05.025Z,12.22
2018-04-14T23:23:32.640Z,12.27
2018-04-14T23:26:00.297Z,12.27
2018-04-14T23:28:27.961Z,12.18
2018-04-14T23:30:56.452Z,12.09
2018-04-14T23:33:24.113Z,12.08
2018-04-14T23:35:51.836Z,12.14
2018-04-14T23:38:19.497Z,12.13
2018-04-14T23:40:47.085Z,12.09
2018-04-14T23:43:14.870Z,12.07
2018-04-14T23:45:42.454Z,12.13
2018-04-14T23:48:10.045Z,12.13
2018-04-14T23:50:37.680Z,12.14
2018-04-14T23:53:05.349Z,12.11
2018-04-14T23:55:32.935Z,12.17
2018-04-14T23:58:00.685Z,12.22
